sensor_id;sensor_type;location;lat;lon;timestamp;temperature;humidity
79030;DHT22;68511;51.146;7.012;2024-03-22T00:00:14;14.50;62.80
79030;DHT22;68511;51.146;7.012;2024-03-22T00:01:14;14.40;62.60
79030;DHT22;68511;51.146;7.012;2024-03-22T00:02:15;14.40;62.70
79030;DHT22;68511;51.146;7.012;2024-03-22T00:03:15;14.40;62.70
79030;DHT22;68511;51.146;7.012;2024-03-22T00:04:16;14.40;62.70
79030;DHT22;68511;51.146;7.012;2024-03-22T00:05:17;14.40;62.70
79030;DHT22;68511;51.146;7.012;2024-03-22T00:06:17;14.50;62.80
79030;DHT22;68511;51.146;7.012;2024-03-22T00:07:18;14.50;62.80
79030;DHT22;68511;51.146;7.012;2024-03-22T00:08:18;14.50;62.80
79030;DHT22;68511;51.146;7.012;2024-03-22T00:09:19;14.40;62.70
79030;DHT22;68511;51.146;7.012;2024-03-22T00:10:19;14.40;62.70
79030;DHT22;68511;51.146;7.012;2024-03-22T00:11:20;14.40;62.70
79030;DHT22;68511;51.146;7.012;2024-03-22T00:12:20;14.40;62.70
79030;DHT22;68511;51.146;7.012;2024-03-22T00:13:20;14.40;62.70
79030;DHT22;68511;51.146;7.012;2024-03-22T00:14:21;14.40;62.70
79030;DHT22;68511;51.146;7.012;2024-03-22T00:15:21;14.40;62.70
79030;DHT22;68511;51.146;7.012;2024-03-22T00:16:22;14.40;62.70
79030;DHT22;68511;51.146;7.012;2024-03-22T00:17:23;14.50;62.80
79030;DHT22;68511;51.146;7.012;2024-03-22T00:18:23;14.50;62.80
79030;DHT22;68511;51.146;7.012;2024-03-22T00:19:23;14.40;62.70
79030;DHT22;68511;51.146;7.012;2024-03-22T00:20:24;14.40;62.70
79030;DHT22;68511;51.146;7.012;2024-03-22T00:21:24;14.50;62.80
79030;DHT22;68511;51.146;7.012;2024-03-22T00:22:25;14.50;62.80
79030;DHT22;68511;51.146;7.012;2024-03-22T00:23:25;14.50;62.80
79030;DHT22;68511;51.146;7.012;2024-03-22T00:24:26;14.50;62.80
79030;DHT22;68511;51.146;7.012;2024-03-22T00:25:26;14.40;62.70
79030;DHT22;68511;51.146;7.012;2024-03-22T00:26:27;14.40;62.60
79030;DHT22;68511;51.146;7.012;2024-03-22T00:27:28;14.50;62.70
79030;DHT22;68511;51.146;7.012;2024-03-22T00:28:28;14.50;62.80
79030;DHT22;68511;51.146;7.012;2024-03-22T00:29:28;14.50;62.80
79030;DHT22;68511;51.146;7.012;2024-03-22T00:30:29;14.50;62.80
79030;DHT22;68511;51.146;7.012;2024-03-22T00:31:30;14.50;62.70
79030;DHT22;68511;51.146;7.012;2024-03-22T00:32:30;14.40;62.70
79030;DHT22;68511;51.146;7.012;2024-03-22T00:33:30;14.50;62.80
79030;DHT22;68511;51.146;7.012;2024-03-22T00:34:31;14.40;62.70
79030;DHT22;68511;51.146;7.012;2024-03-22T00:35:32;14.40;62.70
79030;DHT22;68511;51.146;7.012;2024-03-22T00:36:32;14.40;62.70
79030;DHT22;68511;51.146;7.012;2024-03-22T00:37:33;14.40;62.70
79030;DHT22;68511;51.146;7.012;2024-03-22T00:38:34;14.40;62.70
79030;DHT22;68511;51.146;7.012;2024-03-22T00:39:34;14.40;62.70
79030;DHT22;68511;51.146;7.012;2024-03-22T00:40:35;14.50;62.90
79030;DHT22;68511;51.146;7.012;2024-03-22T00:41:36;14.40;62.80
79030;DHT22;68511;51.146;7.012;2024-03-22T00:42:36;14.40;62.80
79030;DHT22;68511;51.146;7.012;2024-03-22T00:43:37;14.40;62.80
79030;DHT22;68511;51.146;7.012;2024-03-22T00:44:37;14.40;62.80
79030;DHT22;68511;51.146;7.012;2024-03-22T00:45:38;14.40;62.80
79030;DHT22;68511;51.146;7.012;2024-03-22T00:46:38;14.40;62.80
79030;DHT22;68511;51.146;7.012;2024-03-22T00:47:38;14.40;62.80
79030;DHT22;68511;51.146;7.012;2024-03-22T00:48:39;14.40;62.80
79030;DHT22;68511;51.146;7.012;2024-03-22T00:49:39;14.40;62.80
79030;DHT22;68511;51.146;7.012;2024-03-22T00:50:40;14.40;62.80
79030;DHT22;68511;51.146;7.012;2024-03-22T00:51:40;14.40;62.80
79030;DHT22;68511;51.146;7.012;2024-03-22T00:52:43;14.40;62.80
79030;DHT22;68511;51.146;7.012;2024-03-22T00:53:44;14.40;62.80
79030;DHT22;68511;51.146;7.012;2024-03-22T00:54:44;14.40;62.80
79030;DHT22;68511;51.146;7.012;2024-03-22T00:55:45;14.40;62.90
79030;DHT22;68511;51.146;7.012;2024-03-22T00:56:46;14.40;62.90
79030;DHT22;68511;51.146;7.012;2024-03-22T00:57:47;14.40;62.90
79030;DHT22;68511;51.146;7.012;2024-03-22T00:58:47;14.40;62.90
79030;DHT22;68511;51.146;7.012;2024-03-22T00:59:48;14.40;62.90
79030;DHT22;68511;51.146;7.012;2024-03-22T01:00:48;14.40;62.90
79030;DHT22;68511;51.146;7.012;2024-03-22T01:01:49;14.40;62.90
79030;DHT22;68511;51.146;7.012;2024-03-22T01:02:50;14.40;62.90
79030;DHT22;68511;51.146;7.012;2024-03-22T01:03:50;14.40;62.90
79030;DHT22;68511;51.146;7.012;2024-03-22T01:04:51;14.40;63.00
79030;DHT22;68511;51.146;7.012;2024-03-22T01:05:51;14.40;62.80
79030;DHT22;68511;51.146;7.012;2024-03-22T01:06:51;14.40;62.90
79030;DHT22;68511;51.146;7.012;2024-03-22T01:07:52;14.40;63.00
79030;DHT22;68511;51.146;7.012;2024-03-22T01:08:52;14.40;62.90
79030;DHT22;68511;51.146;7.012;2024-03-22T01:09:53;14.40;63.00
79030;DHT22;68511;51.146;7.012;2024-03-22T01:10:53;14.40;62.90
79030;DHT22;68511;51.146;7.012;2024-03-22T01:11:54;14.40;62.90
79030;DHT22;68511;51.146;7.012;2024-03-22T01:12:54;14.40;62.90
79030;DHT22;68511;51.146;7.012;2024-03-22T01:13:54;14.40;62.90
79030;DHT22;68511;51.146;7.012;2024-03-22T01:14:55;14.40;62.90
79030;DHT22;68511;51.146;7.012;2024-03-22T01:15:55;14.40;62.90
79030;DHT22;68511;51.146;7.012;2024-03-22T01:16:56;14.40;62.90
79030;DHT22;68511;51.146;7.012;2024-03-22T01:17:57;14.40;62.90
79030;DHT22;68511;51.146;7.012;2024-03-22T01:18:57;14.40;62.90
79030;DHT22;68511;51.146;7.012;2024-03-22T01:19:57;14.40;63.00
79030;DHT22;68511;51.146;7.012;2024-03-22T01:20:58;14.40;63.00
79030;DHT22;68511;51.146;7.012;2024-03-22T01:21:58;14.40;63.10
79030;DHT22;68511;51.146;7.012;2024-03-22T01:22:59;14.40;62.90
79030;DHT22;68511;51.146;7.012;2024-03-22T01:24:00;14.40;62.90
79030;DHT22;68511;51.146;7.012;2024-03-22T01:25:00;14.40;62.80
79030;DHT22;68511;51.146;7.012;2024-03-22T01:26:01;14.40;62.90
79030;DHT22;68511;51.146;7.012;2024-03-22T01:27:01;14.40;62.80
79030;DHT22;68511;51.146;7.012;2024-03-22T01:28:02;14.40;62.90
79030;DHT22;68511;51.146;7.012;2024-03-22T01:29:04;14.40;62.80
79030;DHT22;68511;51.146;7.012;2024-03-22T01:30:05;14.40;62.80
79030;DHT22;68511;51.146;7.012;2024-03-22T01:31:05;14.40;62.80
79030;DHT22;68511;51.146;7.012;2024-03-22T01:32:06;14.40;62.80
79030;DHT22;68511;51.146;7.012;2024-03-22T01:33:06;14.40;62.80
79030;DHT22;68511;51.146;7.012;2024-03-22T01:34:07;14.40;62.90
79030;DHT22;68511;51.146;7.012;2024-03-22T01:35:07;14.40;62.90
79030;DHT22;68511;51.146;7.012;2024-03-22T01:36:08;14.40;62.90
79030;DHT22;68511;51.146;7.012;2024-03-22T01:37:08;14.40;63.00
79030;DHT22;68511;51.146;7.012;2024-03-22T01:38:09;14.40;62.90
79030;DHT22;68511;51.146;7.012;2024-03-22T01:39:09;14.40;62.90
79030;DHT22;68511;51.146;7.012;2024-03-22T01:40:11;14.40;63.00
79030;DHT22;68511;51.146;7.012;2024-03-22T01:41:11;14.40;63.00
79030;DHT22;68511;51.146;7.012;2024-03-22T01:42:12;14.40;63.00
79030;DHT22;68511;51.146;7.012;2024-03-22T01:43:12;14.40;63.00
79030;DHT22;68511;51.146;7.012;2024-03-22T01:44:13;14.40;63.00
79030;DHT22;68511;51.146;7.012;2024-03-22T01:45:14;14.40;63.00
79030;DHT22;68511;51.146;7.012;2024-03-22T01:46:14;14.40;63.00
79030;DHT22;68511;51.146;7.012;2024-03-22T01:47:15;14.40;63.00
79030;DHT22;68511;51.146;7.012;2024-03-22T01:48:16;14.40;63.00
79030;DHT22;68511;51.146;7.012;2024-03-22T01:49:16;14.40;63.00
79030;DHT22;68511;51.146;7.012;2024-03-22T01:50:17;14.40;63.10
79030;DHT22;68511;51.146;7.012;2024-03-22T01:51:18;14.40;63.00
79030;DHT22;68511;51.146;7.012;2024-03-22T01:52:18;14.40;63.00
79030;DHT22;68511;51.146;7.012;2024-03-22T01:53:18;14.40;63.00
79030;DHT22;68511;51.146;7.012;2024-03-22T01:54:20;14.40;63.00
79030;DHT22;68511;51.146;7.012;2024-03-22T01:55:20;14.40;63.00
79030;DHT22;68511;51.146;7.012;2024-03-22T01:56:21;14.40;63.00
79030;DHT22;68511;51.146;7.012;2024-03-22T01:57:22;14.40;63.10
79030;DHT22;68511;51.146;7.012;2024-03-22T01:58:23;14.40;63.00
79030;DHT22;68511;51.146;7.012;2024-03-22T01:59:23;14.40;63.10
79030;DHT22;68511;51.146;7.012;2024-03-22T02:00:24;14.40;63.10
79030;DHT22;68511;51.146;7.012;2024-03-22T02:01:24;14.40;63.10
79030;DHT22;68511;51.146;7.012;2024-03-22T02:02:26;14.40;63.10
79030;DHT22;68511;51.146;7.012;2024-03-22T02:03:26;14.40;63.10
79030;DHT22;68511;51.146;7.012;2024-03-22T02:04:27;14.40;63.10
79030;DHT22;68511;51.146;7.012;2024-03-22T02:05:27;14.40;63.10
79030;DHT22;68511;51.146;7.012;2024-03-22T02:06:28;14.40;63.10
79030;DHT22;68511;51.146;7.012;2024-03-22T02:07:29;14.40;63.70
79030;DHT22;68511;51.146;7.012;2024-03-22T02:08:30;14.40;63.00
79030;DHT22;68511;51.146;7.012;2024-03-22T02:09:30;14.40;63.10
79030;DHT22;68511;51.146;7.012;2024-03-22T02:10:31;14.40;63.00
79030;DHT22;68511;51.146;7.012;2024-03-22T02:11:31;14.40;63.10
79030;DHT22;68511;51.146;7.012;2024-03-22T02:12:32;14.40;63.10
79030;DHT22;68511;51.146;7.012;2024-03-22T02:13:32;14.40;63.10
79030;DHT22;68511;51.146;7.012;2024-03-22T02:14:33;14.40;63.00
79030;DHT22;68511;51.146;7.012;2024-03-22T02:15:33;14.40;63.10
79030;DHT22;68511;51.146;7.012;2024-03-22T02:16:34;14.40;63.10
79030;DHT22;68511;51.146;7.012;2024-03-22T02:17:34;14.40;63.10
79030;DHT22;68511;51.146;7.012;2024-03-22T02:18:35;14.40;63.00
79030;DHT22;68511;51.146;7.012;2024-03-22T02:19:36;14.40;63.00
79030;DHT22;68511;51.146;7.012;2024-03-22T02:20:36;14.40;63.00
79030;DHT22;68511;51.146;7.012;2024-03-22T02:21:37;14.40;63.00
79030;DHT22;68511;51.146;7.012;2024-03-22T02:22:37;14.40;63.00
79030;DHT22;68511;51.146;7.012;2024-03-22T02:23:38;14.40;63.10
79030;DHT22;68511;51.146;7.012;2024-03-22T02:24:39;14.40;63.00
79030;DHT22;68511;51.146;7.012;2024-03-22T02:25:39;14.40;63.00
79030;DHT22;68511;51.146;7.012;2024-03-22T02:26:40;14.40;63.00
79030;DHT22;68511;51.146;7.012;2024-03-22T02:27:40;14.40;63.00
79030;DHT22;68511;51.146;7.012;2024-03-22T02:28:41;14.40;63.00
79030;DHT22;68511;51.146;7.012;2024-03-22T02:29:41;14.40;63.10
79030;DHT22;68511;51.146;7.012;2024-03-22T02:30:42;14.40;63.00
79030;DHT22;68511;51.146;7.012;2024-03-22T02:31:42;14.40;63.00
79030;DHT22;68511;51.146;7.012;2024-03-22T02:32:43;14.40;63.00
79030;DHT22;68511;51.146;7.012;2024-03-22T02:33:43;14.40;63.00
79030;DHT22;68511;51.146;7.012;2024-03-22T02:34:44;14.40;63.00
79030;DHT22;68511;51.146;7.012;2024-03-22T02:35:47;14.40;62.90
79030;DHT22;68511;51.146;7.012;2024-03-22T02:36:48;14.40;63.00
79030;DHT22;68511;51.146;7.012;2024-03-22T02:37:48;14.40;63.00
79030;DHT22;68511;51.146;7.012;2024-03-22T02:38:49;14.40;63.00
79030;DHT22;68511;51.146;7.012;2024-03-22T02:39:49;14.40;63.00
79030;DHT22;68511;51.146;7.012;2024-03-22T02:40:52;14.40;63.00
79030;DHT22;68511;51.146;7.012;2024-03-22T02:41:53;14.40;63.00
79030;DHT22;68511;51.146;7.012;2024-03-22T02:42:53;14.40;63.00
79030;DHT22;68511;51.146;7.012;2024-03-22T02:43:54;14.40;63.00
79030;DHT22;68511;51.146;7.012;2024-03-22T02:44:54;14.40;63.00
79030;DHT22;68511;51.146;7.012;2024-03-22T02:45:54;14.40;63.00
79030;DHT22;68511;51.146;7.012;2024-03-22T02:46:55;14.40;63.00
79030;DHT22;68511;51.146;7.012;2024-03-22T02:47:55;14.40;63.10
79030;DHT22;68511;51.146;7.012;2024-03-22T02:48:56;14.40;63.10
79030;DHT22;68511;51.146;7.012;2024-03-22T02:49:56;14.40;63.10
79030;DHT22;68511;51.146;7.012;2024-03-22T02:50:57;14.40;63.10
79030;DHT22;68511;51.146;7.012;2024-03-22T02:51:57;14.40;63.10
79030;DHT22;68511;51.146;7.012;2024-03-22T02:52:58;14.40;63.10
79030;DHT22;68511;51.146;7.012;2024-03-22T02:53:58;14.40;63.00
79030;DHT22;68511;51.146;7.012;2024-03-22T02:54:58;14.40;63.10
79030;DHT22;68511;51.146;7.012;2024-03-22T02:55:59;14.40;63.10
79030;DHT22;68511;51.146;7.012;2024-03-22T02:57:00;14.40;63.10
79030;DHT22;68511;51.146;7.012;2024-03-22T02:58:02;14.40;63.10
79030;DHT22;68511;51.146;7.012;2024-03-22T02:59:03;14.40;63.10
79030;DHT22;68511;51.146;7.012;2024-03-22T03:00:03;14.40;63.00
79030;DHT22;68511;51.146;7.012;2024-03-22T03:01:05;14.40;63.10
79030;DHT22;68511;51.146;7.012;2024-03-22T03:02:06;14.40;63.10
79030;DHT22;68511;51.146;7.012;2024-03-22T03:03:06;14.40;63.00
79030;DHT22;68511;51.146;7.012;2024-03-22T03:04:07;14.40;63.10
79030;DHT22;68511;51.146;7.012;2024-03-22T03:05:07;14.40;63.10
79030;DHT22;68511;51.146;7.012;2024-03-22T03:06:08;14.40;63.10
79030;DHT22;68511;51.146;7.012;2024-03-22T03:07:09;14.40;63.10
79030;DHT22;68511;51.146;7.012;2024-03-22T03:08:10;14.40;63.10
79030;DHT22;68511;51.146;7.012;2024-03-22T03:09:10;14.40;63.80
79030;DHT22;68511;51.146;7.012;2024-03-22T03:10:11;14.40;63.10
79030;DHT22;68511;51.146;7.012;2024-03-22T03:11:11;14.40;63.10
79030;DHT22;68511;51.146;7.012;2024-03-22T03:12:12;14.40;63.10
79030;DHT22;68511;51.146;7.012;2024-03-22T03:13:12;14.40;63.00
79030;DHT22;68511;51.146;7.012;2024-03-22T03:14:13;14.40;63.00
79030;DHT22;68511;51.146;7.012;2024-03-22T03:15:13;14.40;63.00
79030;DHT22;68511;51.146;7.012;2024-03-22T03:16:14;14.40;63.10
79030;DHT22;68511;51.146;7.012;2024-03-22T03:17:14;14.40;63.10
79030;DHT22;68511;51.146;7.012;2024-03-22T03:18:14;14.40;63.10
79030;DHT22;68511;51.146;7.012;2024-03-22T03:19:15;14.40;63.10
79030;DHT22;68511;51.146;7.012;2024-03-22T03:20:15;14.40;63.10
79030;DHT22;68511;51.146;7.012;2024-03-22T03:21:16;14.40;63.10
79030;DHT22;68511;51.146;7.012;2024-03-22T03:22:16;14.40;63.10
79030;DHT22;68511;51.146;7.012;2024-03-22T03:23:17;14.40;63.10
79030;DHT22;68511;51.146;7.012;2024-03-22T03:24:17;14.40;63.10
79030;DHT22;68511;51.146;7.012;2024-03-22T03:25:18;14.40;63.00
79030;DHT22;68511;51.146;7.012;2024-03-22T03:26:18;14.40;63.00
79030;DHT22;68511;51.146;7.012;2024-03-22T03:27:18;14.40;63.10
79030;DHT22;68511;51.146;7.012;2024-03-22T03:28:19;14.40;63.00
79030;DHT22;68511;51.146;7.012;2024-03-22T03:29:20;14.40;63.00
79030;DHT22;68511;51.146;7.012;2024-03-22T03:30:20;14.40;63.00
79030;DHT22;68511;51.146;7.012;2024-03-22T03:31:20;14.40;63.00
79030;DHT22;68511;51.146;7.012;2024-03-22T03:32:21;14.40;63.00
79030;DHT22;68511;51.146;7.012;2024-03-22T03:33:21;14.40;63.00
79030;DHT22;68511;51.146;7.012;2024-03-22T03:34:22;14.40;63.00
79030;DHT22;68511;51.146;7.012;2024-03-22T03:35:22;14.40;63.00
79030;DHT22;68511;51.146;7.012;2024-03-22T03:36:23;14.40;63.00
79030;DHT22;68511;51.146;7.012;2024-03-22T03:37:23;14.40;63.00
79030;DHT22;68511;51.146;7.012;2024-03-22T03:38:23;14.40;63.00
79030;DHT22;68511;51.146;7.012;2024-03-22T03:39:24;14.40;63.10
79030;DHT22;68511;51.146;7.012;2024-03-22T03:40:24;14.40;63.10
79030;DHT22;68511;51.146;7.012;2024-03-22T03:41:25;14.40;63.10
79030;DHT22;68511;51.146;7.012;2024-03-22T03:42:25;14.40;63.00
79030;DHT22;68511;51.146;7.012;2024-03-22T03:43:27;14.40;63.10
79030;DHT22;68511;51.146;7.012;2024-03-22T03:44:27;14.40;63.10
79030;DHT22;68511;51.146;7.012;2024-03-22T03:45:28;14.40;63.10
79030;DHT22;68511;51.146;7.012;2024-03-22T03:46:28;14.40;63.10
79030;DHT22;68511;51.146;7.012;2024-03-22T03:47:29;14.40;63.10
79030;DHT22;68511;51.146;7.012;2024-03-22T03:48:29;14.40;63.10
79030;DHT22;68511;51.146;7.012;2024-03-22T03:49:29;14.40;63.10
79030;DHT22;68511;51.146;7.012;2024-03-22T03:50:30;14.40;63.10
79030;DHT22;68511;51.146;7.012;2024-03-22T03:51:30;14.40;63.10
79030;DHT22;68511;51.146;7.012;2024-03-22T03:52:31;14.40;63.10
79030;DHT22;68511;51.146;7.012;2024-03-22T03:53:31;14.40;63.10
79030;DHT22;68511;51.146;7.012;2024-03-22T03:54:32;14.40;63.10
79030;DHT22;68511;51.146;7.012;2024-03-22T03:55:32;14.40;63.10
79030;DHT22;68511;51.146;7.012;2024-03-22T03:56:33;14.40;63.10
79030;DHT22;68511;51.146;7.012;2024-03-22T03:57:34;14.40;63.10
79030;DHT22;68511;51.146;7.012;2024-03-22T03:58:34;14.40;63.10
79030;DHT22;68511;51.146;7.012;2024-03-22T03:59:35;14.40;63.10
79030;DHT22;68511;51.146;7.012;2024-03-22T04:00:35;14.40;63.10
79030;DHT22;68511;51.146;7.012;2024-03-22T04:01:36;14.40;63.10
79030;DHT22;68511;51.146;7.012;2024-03-22T04:02:36;14.40;63.10
79030;DHT22;68511;51.146;7.012;2024-03-22T04:03:37;14.30;63.00
79030;DHT22;68511;51.146;7.012;2024-03-22T04:04:38;14.40;63.90
79030;DHT22;68511;51.146;7.012;2024-03-22T04:05:39;14.40;63.10
79030;DHT22;68511;51.146;7.012;2024-03-22T04:06:39;14.40;63.10
79030;DHT22;68511;51.146;7.012;2024-03-22T04:07:40;14.40;63.20
79030;DHT22;68511;51.146;7.012;2024-03-22T04:08:42;14.40;63.20
79030;DHT22;68511;51.146;7.012;2024-03-22T04:09:43;14.40;63.10
79030;DHT22;68511;51.146;7.012;2024-03-22T04:10:50;14.40;63.20
79030;DHT22;68511;51.146;7.012;2024-03-22T04:11:52;14.30;63.00
79030;DHT22;68511;51.146;7.012;2024-03-22T04:12:52;14.40;63.10
79030;DHT22;68511;51.146;7.012;2024-03-22T04:13:52;14.40;63.10
79030;DHT22;68511;51.146;7.012;2024-03-22T04:14:53;14.40;63.10
79030;DHT22;68511;51.146;7.012;2024-03-22T04:15:53;14.40;63.10
79030;DHT22;68511;51.146;7.012;2024-03-22T04:16:54;14.40;63.20
79030;DHT22;68511;51.146;7.012;2024-03-22T04:17:56;14.30;63.10
79030;DHT22;68511;51.146;7.012;2024-03-22T04:18:56;14.30;63.10
79030;DHT22;68511;51.146;7.012;2024-03-22T04:19:57;14.30;63.10
79030;DHT22;68511;51.146;7.012;2024-03-22T04:20:58;14.40;63.10
79030;DHT22;68511;51.146;7.012;2024-03-22T04:21:59;14.40;63.20
79030;DHT22;68511;51.146;7.012;2024-03-22T04:22:59;14.40;63.20
79030;DHT22;68511;51.146;7.012;2024-03-22T04:24:00;14.30;63.00
79030;DHT22;68511;51.146;7.012;2024-03-22T04:25:00;14.30;63.10
79030;DHT22;68511;51.146;7.012;2024-03-22T04:26:01;14.40;63.10
79030;DHT22;68511;51.146;7.012;2024-03-22T04:27:01;14.40;63.10
79030;DHT22;68511;51.146;7.012;2024-03-22T04:28:02;14.30;63.00
79030;DHT22;68511;51.146;7.012;2024-03-22T04:29:03;14.40;63.10
79030;DHT22;68511;51.146;7.012;2024-03-22T04:30:04;14.40;63.10
79030;DHT22;68511;51.146;7.012;2024-03-22T04:31:05;14.40;63.10
79030;DHT22;68511;51.146;7.012;2024-03-22T04:32:06;14.40;63.10
79030;DHT22;68511;51.146;7.012;2024-03-22T04:33:06;14.40;63.10
79030;DHT22;68511;51.146;7.012;2024-03-22T04:34:07;14.40;63.10
79030;DHT22;68511;51.146;7.012;2024-03-22T04:35:07;14.40;63.10
79030;DHT22;68511;51.146;7.012;2024-03-22T04:36:08;14.30;63.00
79030;DHT22;68511;51.146;7.012;2024-03-22T04:37:11;14.40;63.10
79030;DHT22;68511;51.146;7.012;2024-03-22T04:38:12;14.40;63.10
79030;DHT22;68511;51.146;7.012;2024-03-22T04:39:12;14.40;63.10
79030;DHT22;68511;51.146;7.012;2024-03-22T04:40:14;14.30;63.00
79030;DHT22;68511;51.146;7.012;2024-03-22T04:41:14;14.30;63.10
79030;DHT22;68511;51.146;7.012;2024-03-22T04:42:14;14.40;63.10
79030;DHT22;68511;51.146;7.012;2024-03-22T04:43:16;14.40;63.10
79030;DHT22;68511;51.146;7.012;2024-03-22T04:44:17;14.40;63.10
79030;DHT22;68511;51.146;7.012;2024-03-22T04:45:17;14.40;63.20
79030;DHT22;68511;51.146;7.012;2024-03-22T04:46:17;14.30;63.00
79030;DHT22;68511;51.146;7.012;2024-03-22T04:47:18;14.30;63.10
79030;DHT22;68511;51.146;7.012;2024-03-22T04:48:19;14.30;63.10
79030;DHT22;68511;51.146;7.012;2024-03-22T04:49:21;14.30;63.10
79030;DHT22;68511;51.146;7.012;2024-03-22T04:50:21;14.40;63.10
79030;DHT22;68511;51.146;7.012;2024-03-22T04:51:21;14.30;63.10
79030;DHT22;68511;51.146;7.012;2024-03-22T04:52:22;14.30;63.10
79030;DHT22;68511;51.146;7.012;2024-03-22T04:53:23;14.40;63.10
79030;DHT22;68511;51.146;7.012;2024-03-22T04:54:23;14.30;63.00
79030;DHT22;68511;51.146;7.012;2024-03-22T04:55:24;14.40;63.20
79030;DHT22;68511;51.146;7.012;2024-03-22T04:56:24;14.40;63.20
79030;DHT22;68511;51.146;7.012;2024-03-22T04:57:24;14.40;63.20
79030;DHT22;68511;51.146;7.012;2024-03-22T04:58:25;14.40;63.20
79030;DHT22;68511;51.146;7.012;2024-03-22T04:59:25;14.40;63.20
79030;DHT22;68511;51.146;7.012;2024-03-22T05:00:26;14.40;63.20
79030;DHT22;68511;51.146;7.012;2024-03-22T05:01:27;14.40;63.20
79030;DHT22;68511;51.146;7.012;2024-03-22T05:02:27;14.40;63.20
79030;DHT22;68511;51.146;7.012;2024-03-22T05:03:27;14.40;63.30
79030;DHT22;68511;51.146;7.012;2024-03-22T05:04:28;14.40;63.30
79030;DHT22;68511;51.146;7.012;2024-03-22T05:05:28;14.40;63.20
79030;DHT22;68511;51.146;7.012;2024-03-22T05:06:29;14.40;63.30
79030;DHT22;68511;51.146;7.012;2024-03-22T05:07:29;14.40;63.30
79030;DHT22;68511;51.146;7.012;2024-03-22T05:08:30;14.40;63.30
79030;DHT22;68511;51.146;7.012;2024-03-22T05:09:30;14.40;63.30
79030;DHT22;68511;51.146;7.012;2024-03-22T05:10:32;14.40;63.30
79030;DHT22;68511;51.146;7.012;2024-03-22T05:11:32;14.40;63.30
79030;DHT22;68511;51.146;7.012;2024-03-22T05:12:33;14.40;63.30
79030;DHT22;68511;51.146;7.012;2024-03-22T05:13:33;14.40;63.20
79030;DHT22;68511;51.146;7.012;2024-03-22T05:14:34;14.40;63.20
79030;DHT22;68511;51.146;7.012;2024-03-22T05:15:34;14.40;63.20
79030;DHT22;68511;51.146;7.012;2024-03-22T05:16:34;14.40;63.20
79030;DHT22;68511;51.146;7.012;2024-03-22T05:17:35;14.40;63.20
79030;DHT22;68511;51.146;7.012;2024-03-22T05:18:36;14.40;63.20
79030;DHT22;68511;51.146;7.012;2024-03-22T05:19:36;14.40;63.20
79030;DHT22;68511;51.146;7.012;2024-03-22T05:20:37;14.40;63.20
79030;DHT22;68511;51.146;7.012;2024-03-22T05:21:37;14.40;63.20
79030;DHT22;68511;51.146;7.012;2024-03-22T05:22:38;14.40;63.20
79030;DHT22;68511;51.146;7.012;2024-03-22T05:23:38;14.50;63.30
79030;DHT22;68511;51.146;7.012;2024-03-22T05:24:38;14.40;63.20
79030;DHT22;68511;51.146;7.012;2024-03-22T05:25:39;14.40;63.30
79030;DHT22;68511;51.146;7.012;2024-03-22T05:26:39;14.40;63.30
79030;DHT22;68511;51.146;7.012;2024-03-22T05:27:40;14.50;63.30
79030;DHT22;68511;51.146;7.012;2024-03-22T05:28:42;14.50;63.30
79030;DHT22;68511;51.146;7.012;2024-03-22T05:29:42;14.50;63.30
79030;DHT22;68511;51.146;7.012;2024-03-22T05:30:43;14.50;63.30
79030;DHT22;68511;51.146;7.012;2024-03-22T05:31:47;14.50;63.30
79030;DHT22;68511;51.146;7.012;2024-03-22T05:32:51;14.50;63.30
79030;DHT22;68511;51.146;7.012;2024-03-22T05:33:51;14.50;63.30
79030;DHT22;68511;51.146;7.012;2024-03-22T05:34:52;14.50;63.30
79030;DHT22;68511;51.146;7.012;2024-03-22T05:35:52;14.50;63.20
79030;DHT22;68511;51.146;7.012;2024-03-22T05:36:53;14.50;63.20
79030;DHT22;68511;51.146;7.012;2024-03-22T05:37:54;14.50;63.20
79030;DHT22;68511;51.146;7.012;2024-03-22T05:38:54;14.50;63.20
79030;DHT22;68511;51.146;7.012;2024-03-22T05:39:55;14.50;63.20
79030;DHT22;68511;51.146;7.012;2024-03-22T05:40:55;14.50;63.20
79030;DHT22;68511;51.146;7.012;2024-03-22T05:41:56;14.50;63.30
79030;DHT22;68511;51.146;7.012;2024-03-22T05:42:56;14.50;63.20
79030;DHT22;68511;51.146;7.012;2024-03-22T05:43:57;14.50;63.20
79030;DHT22;68511;51.146;7.012;2024-03-22T05:44:57;14.50;63.30
79030;DHT22;68511;51.146;7.012;2024-03-22T05:45:58;14.50;63.30
79030;DHT22;68511;51.146;7.012;2024-03-22T05:46:58;14.50;63.30
79030;DHT22;68511;51.146;7.012;2024-03-22T05:47:58;14.50;63.30
79030;DHT22;68511;51.146;7.012;2024-03-22T05:48:59;14.50;63.30
79030;DHT22;68511;51.146;7.012;2024-03-22T05:49:59;14.50;63.30
79030;DHT22;68511;51.146;7.012;2024-03-22T05:51:00;14.50;63.30
79030;DHT22;68511;51.146;7.012;2024-03-22T05:52:00;14.50;63.30
79030;DHT22;68511;51.146;7.012;2024-03-22T05:53:01;14.50;63.20
79030;DHT22;68511;51.146;7.012;2024-03-22T05:54:01;14.50;63.20
79030;DHT22;68511;51.146;7.012;2024-03-22T05:55:02;14.50;63.20
79030;DHT22;68511;51.146;7.012;2024-03-22T05:56:03;14.50;63.20
79030;DHT22;68511;51.146;7.012;2024-03-22T05:57:04;14.50;63.20
79030;DHT22;68511;51.146;7.012;2024-03-22T05:58:07;14.50;63.20
79030;DHT22;68511;51.146;7.012;2024-03-22T05:59:09;14.50;63.20
79030;DHT22;68511;51.146;7.012;2024-03-22T06:00:10;14.50;63.20
79030;DHT22;68511;51.146;7.012;2024-03-22T06:01:13;14.50;63.20
79030;DHT22;68511;51.146;7.012;2024-03-22T06:02:14;14.50;63.20
79030;DHT22;68511;51.146;7.012;2024-03-22T06:03:15;14.50;63.20
79030;DHT22;68511;51.146;7.012;2024-03-22T06:04:15;14.50;63.20
79030;DHT22;68511;51.146;7.012;2024-03-22T06:05:16;14.50;63.20
79030;DHT22;68511;51.146;7.012;2024-03-22T06:06:17;14.50;63.10
79030;DHT22;68511;51.146;7.012;2024-03-22T06:07:18;14.50;63.10
79030;DHT22;68511;51.146;7.012;2024-03-22T06:08:19;14.50;63.10
79030;DHT22;68511;51.146;7.012;2024-03-22T06:09:20;14.50;63.10
79030;DHT22;68511;51.146;7.012;2024-03-22T06:10:37;14.50;63.20
79030;DHT22;68511;51.146;7.012;2024-03-22T06:11:37;14.50;63.10
79030;DHT22;68511;51.146;7.012;2024-03-22T06:12:38;14.50;63.10
79030;DHT22;68511;51.146;7.012;2024-03-22T06:13:38;14.50;63.20
79030;DHT22;68511;51.146;7.012;2024-03-22T06:14:39;14.50;63.10
79030;DHT22;68511;51.146;7.012;2024-03-22T06:15:42;14.50;63.10
79030;DHT22;68511;51.146;7.012;2024-03-22T06:16:45;14.50;63.10
79030;DHT22;68511;51.146;7.012;2024-03-22T06:17:46;14.50;63.10
79030;DHT22;68511;51.146;7.012;2024-03-22T06:18:46;14.50;63.10
79030;DHT22;68511;51.146;7.012;2024-03-22T06:19:47;14.50;63.80
79030;DHT22;68511;51.146;7.012;2024-03-22T06:20:47;14.50;63.10
79030;DHT22;68511;51.146;7.012;2024-03-22T06:21:48;14.50;63.10
79030;DHT22;68511;51.146;7.012;2024-03-22T06:22:48;14.50;63.10